ADDS - METARS form results

Aviation Digital Data Service (ADDS)

Output produced by METARs form (1609 UTC 30 September 2022)
found at http://aviationweather.gov/metar/data/
 
METAR text: KJOT 301555Z AUTO 14004KT 10SM CLR 17/09 A3033 RMK AO2 T01650089
Conditions at: KJOT (JOLIET , IL, US) observed 1555 UTC 30 September 2022
Temperature: 16.5°C (62°F)
Dewpoint: 8.9°C (48°F) [RH = 61%]
Pressure (altimeter): 30.33 inches Hg (1027.2 mb)
Winds: from the SE (140 degrees) at 5 MPH (4 knots; 2.1 m/s)
Visibility: 10 or more miles (16+ km)
Ceiling: at least 12,000 feet AGL
Clouds: sky clear below 12,000 feet AGL
Weather: automated observation with no human augmentation;
there may or may not be significant weather present at this time

METAR text: KJOT 301535Z AUTO 18005KT 10SM CLR 16/09 A3034 RMK AO2 T01570090
Conditions at: KJOT (JOLIET , IL, US) observed 1535 UTC 30 September 2022
Temperature: 15.7°C (60°F)
Dewpoint: 9.0°C (48°F) [RH = 64%]
Pressure (altimeter): 30.34 inches Hg (1027.5 mb)
Winds: from the S (180 degrees) at 6 MPH (5 knots; 2.6 m/s)
Visibility: 10 or more miles (16+ km)
Ceiling: at least 12,000 feet AGL
Clouds: sky clear below 12,000 feet AGL
Weather: automated observation with no human augmentation;
there may or may not be significant weather present at this time

METAR text: KJOT 301515Z AUTO 20004KT 10SM CLR 15/09 A3035 RMK AO2 T01540088
Conditions at: KJOT (JOLIET , IL, US) observed 1515 UTC 30 September 2022
Temperature: 15.4°C (60°F)
Dewpoint: 8.8°C (48°F) [RH = 65%]
Pressure (altimeter): 30.35 inches Hg (1027.9 mb)
Winds: from the SSW (200 degrees) at 5 MPH (4 knots; 2.1 m/s)
Visibility: 10 or more miles (16+ km)
Ceiling: at least 12,000 feet AGL
Clouds: sky clear below 12,000 feet AGL
Weather: automated observation with no human augmentation;
there may or may not be significant weather present at this time